createdAt,value
2017-02-28T00:00:21.112Z,17.93
2017-02-28T00:01:31.743Z,18.05
2017-02-28T00:02:41.928Z,17.9
2017-02-28T00:03:52.125Z,17.99
2017-02-28T00:05:01.865Z,18
2017-02-28T00:06:12.094Z,17.96
2017-02-28T00:07:22.288Z,17.95
2017-02-28T00:08:32.048Z,17.93
2017-02-28T00:09:42.251Z,17.89
2017-02-28T00:10:52.026Z,17.89
2017-02-28T00:12:02.271Z,17.95
2017-02-28T00:13:12.481Z,17.93
2017-02-28T00:14:22.666Z,17.86
2017-02-28T00:15:33.292Z,17.9
2017-02-28T00:16:43.485Z,17.9
2017-02-28T00:17:53.279Z,17.84
2017-02-28T00:19:03.042Z,17.89
2017-02-28T00:20:12.789Z,17.92
2017-02-28T00:21:22.975Z,17.87
2017-02-28T00:22:33.614Z,17.82
2017-02-28T00:23:43.853Z,17.84
2017-02-28T00:24:54.480Z,17.86
2017-02-28T00:26:04.658Z,17.81
2017-02-28T00:27:14.403Z,17.9
2017-02-28T00:28:25.918Z,17.84
2017-02-28T00:29:35.917Z,17.86
2017-02-28T00:30:45.667Z,17.92
2017-02-28T00:31:55.407Z,17.81
2017-02-28T00:33:06.909Z,17.72
2017-02-28T00:34:17.550Z,17.74
2017-02-28T00:35:28.425Z,17.66
2017-02-28T00:36:38.176Z,17.7
2017-02-28T00:37:48.371Z,17.75
2017-02-28T00:38:57.689Z,17.77
2017-02-28T00:40:07.004Z,17.75
2017-02-28T00:41:16.834Z,17.72
2017-02-28T00:42:27.024Z,17.7
2017-02-28T00:43:36.771Z,17.72
2017-02-28T00:44:47.425Z,17.72
2017-02-28T00:45:57.635Z,17.74
2017-02-28T00:47:07.451Z,17.68
2017-02-28T00:48:17.226Z,17.64
2017-02-28T00:49:27.423Z,17.64
2017-02-28T00:50:37.606Z,17.56
2017-02-28T00:51:48.237Z,17.58
2017-02-28T00:52:58.477Z,17.58
2017-02-28T00:54:09.566Z,17.58
2017-02-28T00:55:20.221Z,17.64
2017-02-28T00:56:30.412Z,17.54
2017-02-28T00:57:41.050Z,17.54
2017-02-28T00:58:50.852Z,17.52
2017-02-28T01:00:01.054Z,17.54
2017-02-28T01:01:11.705Z,17.52
2017-02-28T01:02:21.883Z,17.55
2017-02-28T01:03:32.537Z,17.54
2017-02-28T01:04:43.213Z,17.52
2017-02-28T01:05:53.004Z,17.52
2017-02-28T01:07:02.777Z,17.49
2017-02-28T01:08:12.554Z,17.44
2017-02-28T01:09:21.866Z,17.49
2017-02-28T01:10:32.544Z,17.41
2017-02-28T01:11:43.165Z,17.41
2017-02-28T01:12:53.381Z,17.49
2017-02-28T01:14:03.582Z,17.44
2017-02-28T01:15:13.779Z,17.49
2017-02-28T01:16:23.592Z,17.4
2017-02-28T01:17:33.346Z,17.44
2017-02-28T01:18:42.699Z,17.34
2017-02-28T01:19:52.901Z,17.44
2017-02-28T01:21:03.087Z,17.4
2017-02-28T01:22:12.896Z,17.38
2017-02-28T01:23:23.108Z,17.36
2017-02-28T01:24:33.310Z,17.4
2017-02-28T01:25:43.486Z,17.38
2017-02-28T01:26:54.135Z,17.41
2017-02-28T01:28:04.372Z,17.37
2017-02-28T01:29:15.017Z,17.4
2017-02-28T01:30:25.204Z,17.41
2017-02-28T01:31:35.412Z,17.36
2017-02-28T01:32:46.485Z,17.36
2017-02-28T01:33:57.162Z,17.34
2017-02-28T01:35:06.477Z,17.37
2017-02-28T01:36:17.116Z,17.34
2017-02-28T01:37:28.167Z,17.34
2017-02-28T01:38:38.389Z,17.33
2017-02-28T01:39:48.638Z,17.23
2017-02-28T01:40:58.835Z,17.3
2017-02-28T01:42:08.592Z,17.25
2017-02-28T01:43:18.372Z,17.22
2017-02-28T01:44:28.142Z,17.21
2017-02-28T01:45:38.386Z,17.31
2017-02-28T01:46:48.136Z,17.22
2017-02-28T01:47:57.442Z,17.25
2017-02-28T01:49:08.071Z,17.23
2017-02-28T01:50:17.822Z,17.26
2017-02-28T01:51:27.399Z,17.19
2017-02-28T01:52:38.040Z,17.25
2017-02-28T01:53:48.255Z,17.16
2017-02-28T01:54:58.455Z,17.31
2017-02-28T01:56:09.093Z,17.31
2017-02-28T01:57:19.057Z,17.19
2017-02-28T01:58:29.238Z,17.23
2017-02-28T01:59:39.869Z,17.14
2017-02-28T02:00:50.042Z,17.16
2017-02-28T02:02:00.239Z,17.19
2017-02-28T02:03:09.641Z,17.16
2017-02-28T02:04:19.409Z,17.18
2017-02-28T02:05:29.169Z,17.15
2017-02-28T02:06:39.368Z,17.19
2017-02-28T02:07:49.565Z,17.18
2017-02-28T02:08:59.376Z,17.19
2017-02-28T02:10:09.114Z,17.12
2017-02-28T02:11:18.903Z,17.12
2017-02-28T02:12:29.100Z,17.12
2017-02-28T02:13:39.317Z,17.03
2017-02-28T02:14:49.542Z,17.03
2017-02-28T02:15:59.292Z,17.18
2017-02-28T02:17:09.906Z,17.11
2017-02-28T02:18:20.527Z,17.14
2017-02-28T02:19:30.287Z,17.12
2017-02-28T02:20:40.980Z,17.18
2017-02-28T02:21:51.590Z,17.14
2017-02-28T02:23:01.367Z,17.11
2017-02-28T02:24:10.709Z,17.14
2017-02-28T02:25:20.938Z,17.14
2017-02-28T02:26:30.771Z,17.11
2017-02-28T02:27:40.096Z,17.07
2017-02-28T02:28:50.311Z,17.07
2017-02-28T02:30:00.522Z,17.11
2017-02-28T02:31:10.281Z,17.08
2017-02-28T02:32:20.104Z,17.11
2017-02-28T02:33:30.317Z,17.04
2017-02-28T02:34:39.647Z,17.06
2017-02-28T02:35:49.399Z,17.07
2017-02-28T02:36:58.729Z,17.03
2017-02-28T02:38:09.000Z,17.03
2017-02-28T02:39:18.787Z,17.14
2017-02-28T02:40:28.107Z,17.07
2017-02-28T02:41:37.433Z,17.06
2017-02-28T02:42:46.750Z,17.04
2017-02-28T02:43:56.994Z,17.03
2017-02-28T02:45:06.760Z,17.07
2017-02-28T02:46:16.544Z,17.06
2017-02-28T02:47:26.298Z,17.04
2017-02-28T02:48:35.639Z,17.01
2017-02-28T02:49:45.056Z,17.12
2017-02-28T02:50:55.706Z,17.06
2017-02-28T02:52:05.458Z,17.06
2017-02-28T02:53:15.665Z,17.06
2017-02-28T02:54:24.989Z,17.06
2017-02-28T02:55:34.807Z,17.03
2017-02-28T02:56:44.580Z,16.93
2017-02-28T02:57:54.789Z,16.89
2017-02-28T02:59:05.010Z,17
2017-02-28T03:00:14.328Z,16.91
2017-02-28T03:01:23.712Z,16.88
2017-02-28T03:02:33.051Z,17
2017-02-28T03:03:42.418Z,17.01
2017-02-28T03:04:51.768Z,16.96
2017-02-28T03:06:01.133Z,16.94
2017-02-28T03:07:10.522Z,16.96
2017-02-28T03:08:19.850Z,16.98
2017-02-28T03:09:29.193Z,16.98
2017-02-28T03:10:38.538Z,16.94
2017-02-28T03:11:47.855Z,16.96
2017-02-28T03:12:57.216Z,16.96
2017-02-28T03:14:06.554Z,16.96
2017-02-28T03:15:16.322Z,16.96
2017-02-28T03:16:25.655Z,16.93
2017-02-28T03:17:35.432Z,16.97
2017-02-28T03:18:44.821Z,16.93
2017-02-28T03:19:54.594Z,16.96
2017-02-28T03:21:03.924Z,16.89
2017-02-28T03:22:13.255Z,16.93
2017-02-28T03:23:23.026Z,16.96
2017-02-28T03:24:32.415Z,16.91
2017-02-28T03:25:42.186Z,16.85
2017-02-28T03:26:52.401Z,16.85
2017-02-28T03:28:02.167Z,16.85
2017-02-28T03:29:11.491Z,16.93
2017-02-28T03:30:21.356Z,16.83
2017-02-28T03:31:31.997Z,16.91
2017-02-28T03:32:41.318Z,16.91
2017-02-28T03:33:50.660Z,16.98
2017-02-28T03:35:00.877Z,16.89
2017-02-28T03:36:10.698Z,16.82
2017-02-28T03:37:20.911Z,16.86
2017-02-28T03:38:30.664Z,16.83
2017-02-28T03:39:40.872Z,16.83
2017-02-28T03:40:50.622Z,16.83
2017-02-28T03:42:00.008Z,16.83
2017-02-28T03:43:09.316Z,16.81
2017-02-28T03:44:18.642Z,16.83
2017-02-28T03:45:28.407Z,16.86
2017-02-28T03:46:37.760Z,16.86
2017-02-28T03:47:47.585Z,16.91
2017-02-28T03:48:56.927Z,16.82
2017-02-28T03:50:06.686Z,16.82
2017-02-28T03:51:16.000Z,16.89
2017-02-28T03:52:25.754Z,16.79
2017-02-28T03:53:36.027Z,16.79
2017-02-28T03:54:45.804Z,16.79
2017-02-28T03:55:55.133Z,16.81
2017-02-28T03:57:04.450Z,16.82
2017-02-28T03:58:13.771Z,16.76
2017-02-28T03:59:23.163Z,16.83
2017-02-28T04:00:32.937Z,16.75
2017-02-28T04:01:43.143Z,16.75
2017-02-28T04:02:52.467Z,16.73
2017-02-28T04:04:01.789Z,16.76
2017-02-28T04:05:11.632Z,16.81
2017-02-28T04:06:20.947Z,16.79
2017-02-28T04:07:30.312Z,16.79
2017-02-28T04:08:39.658Z,16.75
2017-02-28T04:09:49.429Z,16.76
2017-02-28T04:10:59.672Z,16.75
2017-02-28T04:12:09.429Z,16.76
2017-02-28T04:13:19.206Z,16.76
2017-02-28T04:14:28.543Z,16.71
2017-02-28T04:15:37.865Z,16.75
2017-02-28T04:16:47.258Z,16.78
2017-02-28T04:17:56.595Z,16.75
2017-02-28T04:19:05.924Z,16.75
2017-02-28T04:20:15.246Z,16.76
2017-02-28T04:21:24.591Z,16.76
2017-02-28T04:22:33.968Z,16.66
2017-02-28T04:23:43.281Z,16.7
2017-02-28T04:24:53.059Z,16.81
2017-02-28T04:26:03.258Z,16.71
2017-02-28T04:27:13.037Z,16.64
2017-02-28T04:28:22.858Z,16.64
2017-02-28T04:29:32.177Z,16.64
2017-02-28T04:30:42.377Z,16.73
2017-02-28T04:31:51.696Z,16.64
2017-02-28T04:33:01.459Z,16.67
2017-02-28T04:34:11.295Z,16.66
2017-02-28T04:35:21.046Z,16.6
2017-02-28T04:36:30.810Z,16.64
2017-02-28T04:37:40.142Z,16.61
2017-02-28T04:38:49.913Z,16.63
2017-02-28T04:39:59.282Z,16.66
2017-02-28T04:41:08.630Z,16.64
2017-02-28T04:42:18.396Z,16.58
2017-02-28T04:43:27.730Z,16.64
2017-02-28T04:44:37.504Z,16.58
2017-02-28T04:45:46.883Z,16.58
2017-02-28T04:46:57.117Z,16.64
2017-02-28T04:48:06.463Z,16.68
2017-02-28T04:49:16.234Z,16.52
2017-02-28T04:50:26.033Z,16.52
2017-02-28T04:51:35.436Z,16.5
2017-02-28T04:52:44.764Z,16.57
2017-02-28T04:53:54.121Z,16.5
2017-02-28T04:55:03.461Z,16.5
2017-02-28T04:56:12.807Z,16.56
2017-02-28T04:57:22.633Z,16.45
2017-02-28T04:58:31.953Z,16.52
2017-02-28T04:59:41.291Z,16.52
2017-02-28T05:00:51.503Z,16.58
2017-02-28T05:02:00.821Z,16.53
2017-02-28T05:03:10.352Z,16.46
2017-02-28T05:04:19.686Z,16.45
2017-02-28T05:05:29.454Z,16.5
2017-02-28T05:06:39.218Z,16.48
2017-02-28T05:07:48.539Z,16.46
2017-02-28T05:08:58.349Z,16.45
2017-02-28T05:10:07.674Z,16.45
2017-02-28T05:11:16.999Z,16.38
2017-02-28T05:12:26.780Z,16.49
2017-02-28T05:13:36.122Z,16.41
2017-02-28T05:14:45.535Z,16.46
2017-02-28T05:15:54.859Z,16.53
2017-02-28T05:17:04.181Z,16.43
2017-02-28T05:18:13.494Z,16.39
2017-02-28T05:19:23.259Z,16.41
2017-02-28T05:20:32.633Z,16.42
2017-02-28T05:21:41.958Z,16.42
2017-02-28T05:22:52.611Z,16.45
2017-02-28T05:24:01.940Z,16.34
2017-02-28T05:25:11.257Z,16.49
2017-02-28T05:26:20.626Z,16.41
2017-02-28T05:27:29.961Z,16.42
2017-02-28T05:28:39.292Z,16.42
2017-02-28T05:29:48.606Z,16.39
2017-02-28T05:30:57.939Z,16.38
2017-02-28T05:32:07.312Z,16.43
2017-02-28T05:33:16.644Z,16.43
2017-02-28T05:34:26.854Z,16.35
2017-02-28T05:35:36.616Z,16.35
2017-02-28T05:36:45.961Z,16.39
2017-02-28T05:37:55.766Z,16.48
2017-02-28T05:39:05.079Z,16.34
2017-02-28T05:40:14.417Z,16.39
2017-02-28T05:41:24.610Z,16.39
2017-02-28T05:42:34.358Z,16.39
2017-02-28T05:43:43.724Z,16.33
2017-02-28T05:44:53.069Z,16.38
2017-02-28T05:46:02.847Z,16.33
2017-02-28T05:47:12.196Z,16.38
2017-02-28T05:48:21.973Z,16.38
2017-02-28T05:49:31.794Z,16.38
2017-02-28T05:50:41.118Z,16.33
2017-02-28T05:51:50.876Z,16.28
2017-02-28T05:53:00.197Z,16.41
2017-02-28T05:54:09.525Z,16.31
2017-02-28T05:55:18.908Z,16.33
2017-02-28T05:56:28.246Z,16.25
2017-02-28T05:57:38.043Z,16.25
2017-02-28T05:58:47.351Z,16.27
2017-02-28T05:59:56.665Z,16.35
2017-02-28T06:01:06.481Z,16.28
2017-02-28T06:02:15.810Z,16.34
2017-02-28T06:03:25.564Z,16.3
2017-02-28T06:04:34.889Z,16.31
2017-02-28T06:05:44.214Z,16.41
2017-02-28T06:06:53.572Z,16.38
2017-02-28T06:08:03.329Z,16.28
2017-02-28T06:09:13.561Z,16.35
2017-02-28T06:10:23.751Z,16.2
2017-02-28T06:11:33.524Z,16.38
2017-02-28T06:12:42.934Z,16.31
2017-02-28T06:13:52.713Z,16.34
2017-02-28T06:15:02.942Z,16.3
2017-02-28T06:16:12.741Z,16.27
2017-02-28T06:17:22.082Z,16.3
2017-02-28T06:18:31.478Z,16.35
2017-02-28T06:19:41.236Z,16.3
2017-02-28T06:20:50.578Z,16.28
2017-02-28T06:21:59.899Z,16.27
2017-02-28T06:23:09.219Z,16.23
2017-02-28T06:24:19.049Z,16.33
2017-02-28T06:25:29.250Z,16.31
2017-02-28T06:26:38.580Z,16.24
2017-02-28T06:27:48.796Z,16.27
2017-02-28T06:28:59.018Z,16.35
2017-02-28T06:30:08.856Z,16.31
2017-02-28T06:31:18.640Z,16.31
2017-02-28T06:32:27.955Z,16.25
2017-02-28T06:33:37.715Z,16.28
2017-02-28T06:34:47.028Z,16.17
2017-02-28T06:35:56.849Z,16.33
2017-02-28T06:37:06.642Z,16.24
2017-02-28T06:38:15.975Z,16.33
2017-02-28T06:39:25.300Z,16.31
2017-02-28T06:40:34.622Z,16.3
2017-02-28T06:41:43.994Z,16.3
2017-02-28T06:42:53.755Z,16.24
2017-02-28T06:44:03.105Z,16.3
2017-02-28T06:45:12.878Z,16.25
2017-02-28T06:46:22.178Z,16.23
2017-02-28T06:47:31.580Z,16.23
2017-02-28T06:48:40.897Z,16.27
2017-02-28T06:49:50.234Z,16.27
2017-02-28T06:50:59.563Z,16.23
2017-02-28T06:52:08.917Z,16.2
2017-02-28T06:53:18.740Z,16.27
2017-02-28T06:54:28.527Z,16.33
2017-02-28T06:55:37.852Z,16.17
2017-02-28T06:56:47.192Z,16.2
2017-02-28T06:57:56.951Z,16.23
2017-02-28T06:59:06.760Z,16.23
2017-02-28T07:00:16.069Z,16.17
2017-02-28T07:01:25.838Z,16.27
2017-02-28T07:02:35.594Z,16.3
2017-02-28T07:03:45.808Z,16.3
2017-02-28T07:04:55.174Z,16.24
2017-02-28T07:06:04.506Z,16.17
2017-02-28T07:07:14.272Z,16.25
2017-02-28T07:08:24.031Z,16.3
2017-02-28T07:09:34.242Z,16.23
2017-02-28T07:10:43.603Z,16.3
2017-02-28T07:11:52.916Z,16.23
2017-02-28T07:13:02.250Z,16.25
2017-02-28T07:14:11.606Z,16.24
2017-02-28T07:15:20.927Z,16.24
2017-02-28T07:16:30.311Z,16.23
2017-02-28T07:17:40.074Z,16.3
2017-02-28T07:18:49.401Z,16.25
2017-02-28T07:19:59.164Z,16.25
2017-02-28T07:21:08.485Z,16.28
2017-02-28T07:22:18.317Z,16.35
2017-02-28T07:23:28.083Z,16.23
2017-02-28T07:24:37.405Z,16.17
2017-02-28T07:25:46.729Z,16.23
2017-02-28T07:26:56.055Z,16.21
2017-02-28T07:28:05.859Z,16.2
2017-02-28T07:29:15.194Z,16.25
2017-02-28T07:30:24.510Z,16.24
2017-02-28T07:31:34.300Z,16.21
2017-02-28T07:32:43.613Z,16.17
2017-02-28T07:33:52.978Z,16.17
2017-02-28T07:35:02.759Z,16.2
2017-02-28T07:36:12.088Z,16.31
2017-02-28T07:37:21.403Z,16.33
2017-02-28T07:38:31.182Z,16.25
2017-02-28T07:39:40.999Z,16.39
2017-02-28T07:40:50.761Z,16.3
2017-02-28T07:42:00.080Z,16.33
2017-02-28T07:43:10.290Z,16.34
2017-02-28T07:44:19.615Z,16.34
2017-02-28T07:45:28.997Z,16.35
2017-02-28T07:46:38.306Z,16.31
2017-02-28T07:47:48.083Z,16.3
2017-02-28T07:48:57.838Z,16.27
2017-02-28T07:50:07.593Z,16.34
2017-02-28T07:51:16.963Z,16.27
2017-02-28T07:52:26.283Z,16.33
2017-02-28T07:53:35.596Z,16.31
2017-02-28T07:54:44.937Z,16.33
2017-02-28T07:55:54.719Z,16.34
2017-02-28T07:57:04.200Z,16.33
2017-02-28T07:58:13.540Z,16.34
2017-02-28T07:59:22.873Z,16.39
2017-02-28T08:00:32.627Z,16.34
2017-02-28T08:01:41.961Z,16.33
2017-02-28T08:02:51.813Z,16.39
2017-02-28T08:04:01.605Z,16.33
2017-02-28T08:05:11.376Z,16.35
2017-02-28T08:06:21.168Z,16.34
2017-02-28T08:07:30.938Z,16.31
2017-02-28T08:08:40.767Z,16.28
2017-02-28T08:09:50.104Z,16.35
2017-02-28T08:10:59.421Z,16.25
2017-02-28T08:12:08.762Z,16.42
2017-02-28T08:13:18.538Z,16.38
2017-02-28T08:14:28.391Z,16.39
2017-02-28T08:15:39.036Z,16.41
2017-02-28T08:16:48.808Z,16.41
2017-02-28T08:17:58.580Z,16.38
2017-02-28T08:19:07.919Z,16.39
2017-02-28T08:20:18.194Z,16.43
2017-02-28T08:21:27.525Z,16.38
2017-02-28T08:22:37.286Z,16.39
2017-02-28T08:23:46.617Z,16.46
2017-02-28T08:24:55.971Z,16.42
2017-02-28T08:26:05.351Z,16.39
2017-02-28T08:27:14.677Z,16.49
2017-02-28T08:28:24.013Z,16.48
2017-02-28T08:29:33.790Z,16.48
2017-02-28T08:30:43.099Z,16.48
2017-02-28T08:31:52.484Z,16.5
2017-02-28T08:33:02.257Z,16.52
2017-02-28T08:34:12.464Z,16.45
2017-02-28T08:35:21.776Z,16.46
2017-02-28T08:36:31.997Z,16.49
2017-02-28T08:37:41.351Z,16.49
2017-02-28T08:38:50.694Z,16.46
2017-02-28T08:40:00.461Z,16.43
2017-02-28T08:41:10.242Z,16.56
2017-02-28T08:42:20.003Z,16.6
2017-02-28T08:43:30.252Z,16.66
2017-02-28T08:44:39.593Z,16.64
2017-02-28T08:45:49.386Z,16.68
2017-02-28T08:47:00.048Z,16.71
2017-02-28T08:48:09.387Z,16.75
2017-02-28T08:49:19.182Z,16.75
2017-02-28T08:50:29.391Z,16.78
2017-02-28T08:51:39.175Z,16.81
2017-02-28T08:52:48.494Z,16.85
2017-02-28T08:53:58.277Z,17
2017-02-28T08:55:08.552Z,16.94
2017-02-28T08:56:17.876Z,16.96
2017-02-28T08:57:28.519Z,16.93
2017-02-28T08:58:37.840Z,16.93
2017-02-28T08:59:47.593Z,16.94
2017-02-28T09:00:56.972Z,16.98
2017-02-28T09:02:07.167Z,16.98
2017-02-28T09:03:16.497Z,17.06
2017-02-28T09:04:25.861Z,17.07
2017-02-28T09:05:35.173Z,17.16
2017-02-28T09:06:45.419Z,17.19
2017-02-28T09:07:54.748Z,17.25
2017-02-28T09:09:04.977Z,17.18
2017-02-28T09:10:15.203Z,17.33
2017-02-28T09:11:24.971Z,17.33
2017-02-28T09:12:34.345Z,17.34
2017-02-28T09:13:44.123Z,17.31
2017-02-28T09:14:53.444Z,17.26
2017-02-28T09:16:03.243Z,17.33
2017-02-28T09:17:13.014Z,17.3
2017-02-28T09:18:22.845Z,17.43
2017-02-28T09:19:33.056Z,17.36
2017-02-28T09:20:43.265Z,17.44
2017-02-28T09:21:53.049Z,17.48
2017-02-28T09:23:02.832Z,17.52
2017-02-28T09:24:12.669Z,17.54
2017-02-28T09:25:21.994Z,17.55
2017-02-28T09:26:31.327Z,17.58
2017-02-28T09:27:41.089Z,17.56
2017-02-28T09:28:50.414Z,17.59
2017-02-28T09:30:00.234Z,17.56
2017-02-28T09:31:09.568Z,17.63
2017-02-28T09:32:18.890Z,17.59
2017-02-28T09:33:28.206Z,17.63
2017-02-28T09:34:37.536Z,17.63
2017-02-28T09:35:46.933Z,17.71
2017-02-28T09:36:56.254Z,17.72
2017-02-28T09:38:05.591Z,17.68
2017-02-28T09:39:15.369Z,17.87
2017-02-28T09:40:24.690Z,17.82
2017-02-28T09:41:34.070Z,17.78
2017-02-28T09:42:43.391Z,17.86
2017-02-28T09:43:53.144Z,17.95
2017-02-28T09:45:02.487Z,18.02
2017-02-28T09:46:11.812Z,17.95
2017-02-28T09:47:21.648Z,17.97
2017-02-28T09:48:31.400Z,18.08
2017-02-28T09:49:41.160Z,18.15
2017-02-28T09:50:50.933Z,18.21
2017-02-28T09:52:00.254Z,18.21
2017-02-28T09:53:10.821Z,18.25
2017-02-28T09:54:20.600Z,18.21
2017-02-28T09:55:30.377Z,18.21
2017-02-28T09:56:39.694Z,18.2
2017-02-28T09:57:49.447Z,18.33
2017-02-28T09:58:58.821Z,18.37
2017-02-28T10:00:08.617Z,18.33
2017-02-28T10:01:18.384Z,18.37
2017-02-28T10:02:28.609Z,18.5
2017-02-28T10:03:38.404Z,18.44
2017-02-28T10:04:47.777Z,18.58
2017-02-28T10:05:57.528Z,18.65
2017-02-28T10:07:07.757Z,18.73
2017-02-28T10:08:17.082Z,18.8
2017-02-28T10:09:26.835Z,18.82
2017-02-28T10:10:36.216Z,18.95
2017-02-28T10:11:45.553Z,18.94
2017-02-28T10:12:55.325Z,18.88
2017-02-28T10:14:05.535Z,18.87
2017-02-28T10:15:14.910Z,18.9
2017-02-28T10:16:24.315Z,18.91
2017-02-28T10:17:33.638Z,18.92
2017-02-28T10:18:42.961Z,18.88
2017-02-28T10:19:52.293Z,18.8
2017-02-28T10:21:02.064Z,18.84
2017-02-28T10:22:11.439Z,18.76
2017-02-28T10:23:21.652Z,18.8
2017-02-28T10:24:31.479Z,18.92
2017-02-28T10:25:41.284Z,18.91
2017-02-28T10:26:50.593Z,18.99
2017-02-28T10:28:00.393Z,19
2017-02-28T10:29:09.732Z,19.06
2017-02-28T10:30:19.063Z,19.11
2017-02-28T10:31:28.842Z,19.07
2017-02-28T10:32:38.159Z,19.08
2017-02-28T10:33:48.860Z,19.21
2017-02-28T10:34:58.173Z,19.14
2017-02-28T10:36:07.947Z,19.19
2017-02-28T10:37:17.272Z,19.25
2017-02-28T10:38:26.605Z,19.25
2017-02-28T10:39:36.440Z,19.18
2017-02-28T10:40:45.767Z,19.07
2017-02-28T10:41:55.548Z,19.06
2017-02-28T10:43:04.914Z,18.99
2017-02-28T10:44:14.699Z,18.95
2017-02-28T10:45:24.088Z,19
2017-02-28T10:46:33.853Z,18.98
2017-02-28T10:47:43.186Z,18.99
2017-02-28T10:48:52.526Z,19.04
2017-02-28T10:50:02.747Z,19
2017-02-28T10:51:12.554Z,19.13
2017-02-28T10:52:21.879Z,19.18
2017-02-28T10:53:31.193Z,19.16
2017-02-28T10:54:41.156Z,19.18
2017-02-28T10:55:50.922Z,19.11
2017-02-28T10:57:00.312Z,19.06
2017-02-28T10:58:09.640Z,19.08
2017-02-28T10:59:19.414Z,19.11
2017-02-28T11:00:29.167Z,19.19
2017-02-28T11:01:38.504Z,19.28
2017-02-28T11:02:47.871Z,19.36
2017-02-28T11:03:57.195Z,19.43
2017-02-28T11:05:06.536Z,19.44
2017-02-28T11:06:15.892Z,19.48
2017-02-28T11:07:26.562Z,19.47
2017-02-28T11:08:35.938Z,19.36
2017-02-28T11:09:46.151Z,19.4
2017-02-28T11:10:55.902Z,19.23
2017-02-28T11:12:05.691Z,19.26
2017-02-28T11:13:15.009Z,19.32
2017-02-28T11:14:24.482Z,19.25
2017-02-28T11:15:33.802Z,19.26
2017-02-28T11:16:43.116Z,19.28
2017-02-28T11:17:52.449Z,19.26
2017-02-28T11:19:02.654Z,19.16
2017-02-28T11:20:12.055Z,19.02
2017-02-28T11:21:21.369Z,19.13
2017-02-28T11:22:31.138Z,19.02
2017-02-28T11:23:40.463Z,19
2017-02-28T11:24:49.804Z,19
2017-02-28T11:25:59.713Z,19.04
2017-02-28T11:27:09.023Z,19.06
2017-02-28T11:28:18.348Z,19.02
2017-02-28T11:29:28.109Z,18.87
2017-02-28T11:30:37.874Z,18.94
2017-02-28T11:31:47.251Z,19.04
2017-02-28T11:32:56.580Z,19
2017-02-28T11:34:06.364Z,19.04
2017-02-28T11:35:15.687Z,19.08
2017-02-28T11:36:25.463Z,19.08
2017-02-28T11:37:35.293Z,19.1
2017-02-28T11:38:44.618Z,19.18
2017-02-28T11:39:53.987Z,19.07
2017-02-28T11:41:03.737Z,19.07
2017-02-28T11:42:13.538Z,19.08
2017-02-28T11:43:23.512Z,19.1
2017-02-28T11:44:32.836Z,19.22
2017-02-28T11:45:42.597Z,19.25
2017-02-28T11:46:51.910Z,19.47
2017-02-28T11:48:01.232Z,19.59
2017-02-28T11:49:10.637Z,19.71
2017-02-28T11:50:20.858Z,19.71
2017-02-28T11:51:30.615Z,19.8
2017-02-28T11:52:39.940Z,19.95
2017-02-28T11:53:49.705Z,20.02
2017-02-28T11:54:59.527Z,20.01
2017-02-28T11:56:09.340Z,20.01
2017-02-28T11:57:18.680Z,19.84
2017-02-28T11:58:28.433Z,19.78
2017-02-28T11:59:38.199Z,19.68
2017-02-28T12:00:47.583Z,19.76
2017-02-28T12:01:57.794Z,19.69
2017-02-28T12:03:07.562Z,19.71
2017-02-28T12:04:16.888Z,19.69
2017-02-28T12:05:26.661Z,19.66
2017-02-28T12:06:36.038Z,19.63
2017-02-28T12:07:46.267Z,19.48
2017-02-28T12:08:55.604Z,19.51
2017-02-28T12:10:04.922Z,19.5
2017-02-28T12:11:14.695Z,19.5
2017-02-28T12:12:24.074Z,19.5
2017-02-28T12:13:33.829Z,19.46
2017-02-28T12:14:43.153Z,19.33
2017-02-28T12:15:52.907Z,19.44
2017-02-28T12:17:02.245Z,19.5
2017-02-28T12:18:11.618Z,19.68
2017-02-28T12:19:20.938Z,19.71
2017-02-28T12:20:30.709Z,19.69
2017-02-28T12:21:40.073Z,19.73
2017-02-28T12:22:49.858Z,19.73
2017-02-28T12:23:59.240Z,19.63
2017-02-28T12:25:09.013Z,19.65
2017-02-28T12:26:18.789Z,19.66
2017-02-28T12:27:28.110Z,19.68
2017-02-28T12:28:37.865Z,19.56
2017-02-28T12:29:47.242Z,19.71
2017-02-28T12:30:57.458Z,19.8
2017-02-28T12:32:06.804Z,19.94
2017-02-28T12:33:16.597Z,19.83
2017-02-28T12:34:26.402Z,19.83
2017-02-28T12:35:35.774Z,19.84
2017-02-28T12:36:46.000Z,19.87
2017-02-28T12:37:55.354Z,19.8
2017-02-28T12:39:04.699Z,19.87
2017-02-28T12:40:14.023Z,19.91
2017-02-28T12:41:23.830Z,19.99
2017-02-28T12:42:33.588Z,20.05
2017-02-28T12:43:43.392Z,20.16
2017-02-28T12:44:52.725Z,20.18
2017-02-28T12:46:02.486Z,20.21
2017-02-28T12:47:12.303Z,20.23
2017-02-28T12:48:21.625Z,20.35
2017-02-28T12:49:31.398Z,20.32
2017-02-28T12:50:41.185Z,20.26
2017-02-28T12:51:51.408Z,20.26
2017-02-28T12:53:00.788Z,20.26
2017-02-28T12:54:10.557Z,20.21
2017-02-28T12:55:20.739Z,20.26
2017-02-28T12:56:30.069Z,20.2
2017-02-28T12:57:40.273Z,20.2
2017-02-28T12:58:49.647Z,20.11
2017-02-28T12:59:58.961Z,20.05
2017-02-28T13:01:08.294Z,20.06
2017-02-28T13:02:18.510Z,20.14
2017-02-28T13:03:27.848Z,20.13
2017-02-28T13:04:37.240Z,20.21
2017-02-28T13:05:47.002Z,20.31
2017-02-28T13:06:56.770Z,20.36
2017-02-28T13:08:06.966Z,20.32
2017-02-28T13:09:16.286Z,20.31
2017-02-28T13:10:25.662Z,20.24
2017-02-28T13:11:35.425Z,20.28
2017-02-28T13:12:44.768Z,20.23
2017-02-28T13:13:54.547Z,20.23
2017-02-28T13:15:04.772Z,20.06
2017-02-28T13:16:14.190Z,20.14
2017-02-28T13:17:23.981Z,20.14
2017-02-28T13:18:33.744Z,20.23
2017-02-28T13:19:43.973Z,20.28
2017-02-28T13:20:53.302Z,20.28
2017-02-28T13:22:02.714Z,20.13
2017-02-28T13:23:12.040Z,20.18
2017-02-28T13:24:21.353Z,20.11
2017-02-28T13:25:31.122Z,20.08
2017-02-28T13:26:40.876Z,20.05
2017-02-28T13:27:50.692Z,20.06
2017-02-28T13:29:00.450Z,19.99
2017-02-28T13:30:10.207Z,19.98
2017-02-28T13:31:19.529Z,19.96
2017-02-28T13:32:28.834Z,19.96
2017-02-28T13:33:39.100Z,19.99
2017-02-28T13:34:48.410Z,20.08
2017-02-28T13:35:58.189Z,19.94
2017-02-28T13:37:07.945Z,19.99
2017-02-28T13:38:17.723Z,19.92
2017-02-28T13:39:27.109Z,19.96
2017-02-28T13:40:36.466Z,19.87
2017-02-28T13:41:46.227Z,19.86
2017-02-28T13:42:55.556Z,19.84
2017-02-28T13:44:04.873Z,19.68
2017-02-28T13:45:14.681Z,19.68
2017-02-28T13:46:24.447Z,19.71
2017-02-28T13:47:33.789Z,19.68
2017-02-28T13:48:43.118Z,19.65
2017-02-28T13:49:52.444Z,19.65
2017-02-28T13:51:02.269Z,19.58
2017-02-28T13:52:11.589Z,19.58
2017-02-28T13:53:21.355Z,19.5
2017-02-28T13:54:31.572Z,19.54
2017-02-28T13:55:40.905Z,19.5
2017-02-28T13:56:50.715Z,19.55
2017-02-28T13:58:00.928Z,19.5
2017-02-28T13:59:10.711Z,19.46
2017-02-28T14:00:20.494Z,19.51
2017-02-28T14:01:30.295Z,19.55
2017-02-28T14:02:40.142Z,19.46
2017-02-28T14:03:49.914Z,19.37
2017-02-28T14:04:59.258Z,19.44
2017-02-28T14:06:09.033Z,19.4
2017-02-28T14:07:18.805Z,19.36
2017-02-28T14:08:28.162Z,19.23
2017-02-28T14:09:37.506Z,19.26
2017-02-28T14:10:47.735Z,19.33
2017-02-28T14:11:57.500Z,19.22
2017-02-28T14:13:06.815Z,19.25
2017-02-28T14:14:16.187Z,19.28
2017-02-28T14:15:25.957Z,19.29
2017-02-28T14:16:35.726Z,19.25
2017-02-28T14:17:45.044Z,19.28
2017-02-28T14:18:55.253Z,19.25
2017-02-28T14:20:05.070Z,19.13
2017-02-28T14:21:14.408Z,19.21
2017-02-28T14:22:23.733Z,19.23
2017-02-28T14:23:33.072Z,19.13
2017-02-28T14:24:43.742Z,19.14
2017-02-28T14:25:53.112Z,19.16
2017-02-28T14:27:02.917Z,19.14
2017-02-28T14:28:12.697Z,19.11
2017-02-28T14:29:22.469Z,19.06
2017-02-28T14:30:31.819Z,19.02
2017-02-28T14:31:41.624Z,19.08
2017-02-28T14:32:51.387Z,19.07
2017-02-28T14:34:00.716Z,19.02
2017-02-28T14:35:10.033Z,18.98
2017-02-28T14:36:19.395Z,19.02
2017-02-28T14:37:28.779Z,19.04
2017-02-28T14:38:38.541Z,18.98
2017-02-28T14:39:47.862Z,18.95
2017-02-28T14:40:57.182Z,18.99
2017-02-28T14:42:06.939Z,18.99
2017-02-28T14:43:16.325Z,19.06
2017-02-28T14:44:25.681Z,19.02
2017-02-28T14:45:35.424Z,19.11
2017-02-28T14:46:45.197Z,19.06
2017-02-28T14:47:54.523Z,19.08
2017-02-28T14:49:03.919Z,19.13
2017-02-28T14:50:13.241Z,19.07
2017-02-28T14:51:22.562Z,19.1
2017-02-28T14:52:31.899Z,19.19
2017-02-28T14:53:41.252Z,19.18
2017-02-28T14:54:50.657Z,19.13
2017-02-28T14:55:59.970Z,19.21
2017-02-28T14:57:10.167Z,19.22
2017-02-28T14:58:19.503Z,19.25
2017-02-28T14:59:29.261Z,19.28
2017-02-28T15:00:38.635Z,19.22